Time;durP1;ratioP1;P1;durP2;ratioP2;P2;SDS_P1;SDS_P2;PMS_P1;PMS_P2;Temp;Humidity;BMP_temperature;BMP_pressure;BME280_temperature;BME280_humidity;BME280_pressure;Samples;Min_cycle;Max_cycle;Signal;HPM_P1;HPM_P2
2021/12/15 00:01:26;;;;;;;86.90;40.70;;;;;;;4.12;85.14;100855.80;207382;1316;140369;-74
2021/12/15 00:06:31;;;;;;;88.20;45.20;;;;;;;4.13;84.97;100855.96;208852;1315;139804;-76
2021/12/15 00:11:37;;;;;;;84.80;43.00;;;;;;;4.12;84.71;100855.47;208181;1313;141388;-75
2021/12/15 00:16:46;;;;;;;88.20;45.10;;;;;;;4.05;84.96;100865.78;207549;1315;140578;-73
2021/12/15 00:21:54;;;;;;;92.00;49.20;;;;;;;4.02;84.91;100868.71;208004;1316;160416;-74
2021/12/15 00:26:59;;;;;;;81.30;42.50;;;;;;;4.04;85.01;100865.89;208810;1316;141536;-77
2021/12/15 00:32:04;;;;;;;82.50;46.90;;;;;;;4.09;85.00;100868.59;208608;1316;140178;-77
2021/12/15 00:37:09;;;;;;;81.90;43.70;;;;;;;4.07;84.88;100864.53;208346;1313;139421;-72
2021/12/15 00:42:14;;;;;;;82.40;36.60;;;;;;;4.07;84.97;100862.13;208890;1316;140345;-74
2021/12/15 00:47:21;;;;;;;78.90;39.00;;;;;;;4.15;85.09;100857.77;209227;1317;139900;-74
2021/12/15 00:52:29;;;;;;;74.20;42.10;;;;;;;4.15;84.88;100866.35;209313;1316;139655;-74
2021/12/15 00:57:40;;;;;;;80.10;39.70;;;;;;;4.12;84.82;100864.37;208457;1316;139701;-74
2021/12/15 01:02:49;;;;;;;91.20;44.40;;;;;;;4.15;85.04;100874.57;209146;1316;140528;-75
2021/12/15 01:07:55;;;;;;;72.60;40.00;;;;;;;4.21;85.04;100872.00;207596;1316;141732;-74
2021/12/15 01:23:39;;;;;;;87.90;42.00;;;;;;;4.22;85.03;100880.41;208090;1316;141459;-75
2021/12/15 01:28:43;;;;;;;93.70;45.40;;;;;;;4.21;85.14;100882.88;208563;1311;139701;-72
2021/12/15 01:33:51;;;;;;;96.10;47.60;;;;;;;4.18;85.06;100879.58;207790;1315;141678;-75
2021/12/15 01:38:57;;;;;;;86.70;40.90;;;;;;;4.18;84.96;100882.19;207953;1316;141601;-74
2021/12/15 01:49:21;;;;;;;94.50;42.40;;;;;;;4.12;85.12;100892.67;207994;1316;139464;-71
2021/12/15 01:54:40;;;;;;;158.10;67.90;;;;;;;4.16;85.32;100897.89;208339;1316;141685;-71
2021/12/15 01:59:49;;;;;;;100.90;50.00;;;;;;;4.23;85.46;100901.52;207709;1316;141742;-71
2021/12/15 02:04:53;;;;;;;92.10;48.40;;;;;;;4.28;85.40;100902.98;208024;1316;142393;-72
2021/12/15 02:10:02;;;;;;;76.10;35.90;;;;;;;4.28;85.15;100907.16;207457;1312;210925;-68
2021/12/15 02:15:37;;;;;;;80.40;42.90;;;;;;;4.26;85.22;100908.42;208462;1315;162364;-72
2021/12/15 02:20:47;;;;;;;82.00;39.90;;;;;;;4.30;85.28;100910.58;208042;1317;142303;-68
2021/12/15 02:25:52;;;;;;;84.30;42.60;;;;;;;4.28;85.05;100915.11;208167;1316;140591;-72
2021/12/15 02:31:05;;;;;;;81.10;35.70;;;;;;;4.30;85.19;100915.75;208690;1315;140839;-72
2021/12/15 02:41:33;;;;;;;76.80;39.90;;;;;;;4.34;85.24;100920.34;209362;1316;142466;-77
2021/12/15 02:46:39;;;;;;;76.70;37.30;;;;;;;4.38;85.20;100925.60;209327;1317;140725;-76
2021/12/15 02:51:48;;;;;;;74.30;35.10;;;;;;;4.41;84.74;100921.11;209727;1316;140943;-75
2021/12/15 02:56:54;;;;;;;79.40;38.80;;;;;;;4.37;84.86;100918.66;209236;1316;141392;-72
2021/12/15 03:02:16;;;;;;;81.50;45.00;;;;;;;4.39;85.03;100925.70;207717;1316;142507;-76
2021/12/15 03:07:39;;;;;;;73.20;35.00;;;;;;;4.42;84.93;100934.17;209858;1312;140613;-75
2021/12/15 03:18:43;;;;;;;79.20;40.30;;;;;;;4.48;84.95;100942.86;208790;1316;141049;-74
2021/12/15 03:23:52;;;;;;;75.60;33.90;;;;;;;4.43;84.65;100944.91;207686;1316;139479;-73
2021/12/15 03:35:01;;;;;;;71.70;37.60;;;;;;;4.44;84.83;100943.42;207388;1316;139735;-72
2021/12/15 03:40:19;;;;;;;54.90;29.30;;;;;;;4.47;84.88;100943.52;208358;1316;141709;-73
2021/12/15 03:45:32;;;;;;;70.10;36.80;;;;;;;4.44;84.53;100940.29;208423;1316;141149;-72
2021/12/15 03:50:42;;;;;;;66.40;33.70;;;;;;;4.40;84.20;100942.33;207822;1316;140212;-72
2021/12/15 03:55:51;;;;;;;66.60;31.00;;;;;;;4.24;84.21;100942.76;207883;1315;140492;-70
2021/12/15 04:01:17;;;;;;;;;;;;;;;4.22;84.45;100941.39;207502;1316;140471;-71
2021/12/15 04:06:28;;;;;;;63.20;35.80;;;;;;;4.10;84.50;100952.56;209431;1316;127205;-71
2021/12/15 04:11:36;;;;;;;67.50;32.90;;;;;;;4.07;84.96;100957.97;207326;1316;140689;-70
2021/12/15 04:16:45;;;;;;;71.00;36.10;;;;;;;4.15;85.11;100962.41;207510;1316;139951;-69
2021/12/15 04:21:53;;;;;;;77.20;35.20;;;;;;;4.21;85.06;100953.52;207659;1316;164565;-69
2021/12/15 04:27:02;;;;;;;76.70;37.60;;;;;;;4.26;85.31;100954.68;208433;1316;141294;-69
2021/12/15 04:32:16;;;;;;;64.40;29.80;;;;;;;4.29;84.97;100953.66;208411;1316;141075;-71
2021/12/15 04:37:23;;;;;;;61.20;32.10;;;;;;;4.35;85.27;100959.38;209264;1315;141899;-72
2021/12/15 04:42:31;;;;;;;62.30;29.80;;;;;;;4.38;85.07;100957.40;207445;1316;140663;-73
2021/12/15 04:47:50;;;;;;;61.50;29.10;;;;;;;4.39;85.17;100954.63;209278;1316;141427;-72
2021/12/15 04:53:26;;;;;;;71.30;31.70;;;;;;;4.43;85.10;100959.91;209289;1316;140149;-73
2021/12/15 04:58:30;;;;;;;68.70;39.50;;;;;;;4.49;85.17;100959.70;209370;1314;141088;-73
2021/12/15 05:03:38;;;;;;;53.50;27.00;;;;;;;4.53;85.11;100951.97;208727;1316;140986;-75
2021/12/15 05:08:43;;;;;;;53.90;27.80;;;;;;;4.56;84.75;100954.08;208645;1316;140776;-74
2021/12/15 05:13:50;;;;;;;39.80;22.70;;;;;;;4.55;84.87;100956.03;209538;1316;140827;-72
2021/12/15 05:18:59;;;;;;;52.50;24.30;;;;;;;4.48;84.58;100952.01;207689;1315;140700;-72
2021/12/15 05:24:14;;;;;;;54.90;28.40;;;;;;;4.48;84.67;100960.39;209634;1316;141138;-72
2021/12/15 05:29:19;;;;;;;51.00;28.90;;;;;;;4.49;85.04;100966.86;207998;1316;140222;-73
2021/12/15 05:34:31;;;;;;;53.70;26.10;;;;;;;4.52;84.88;100984.15;208460;1315;139569;-73
2021/12/15 05:39:36;;;;;;;53.70;27.70;;;;;;;4.53;84.70;100987.69;208271;1315;142078;-71
2021/12/15 05:44:41;;;;;;;53.30;25.90;;;;;;;4.54;84.94;100988.67;207978;1316;141449;-73
2021/12/15 05:49:55;;;;;;;48.00;23.40;;;;;;;4.48;84.58;100987.25;207588;1315;140752;-73
2021/12/15 05:55:01;;;;;;;48.30;26.10;;;;;;;4.43;84.55;100987.21;207717;1316;140861;-73
2021/12/15 06:00:18;;;;;;;52.30;31.00;;;;;;;4.43;85.17;100986.85;207588;1313;141240;-72
2021/12/15 06:05:25;;;;;;;43.50;20.70;;;;;;;4.45;84.75;100983.89;207816;1314;142210;-70
2021/12/15 06:10:39;;;;;;;50.90;26.40;;;;;;;4.45;84.74;100987.70;208230;1316;143006;-72
2021/12/15 06:16:05;;;;;;;58.10;27.40;;;;;;;4.43;84.84;100992.33;207231;1316;141154;-70
2021/12/15 06:21:16;;;;;;;53.70;22.90;;;;;;;4.43;85.13;100998.27;207744;1316;142853;-71
2021/12/15 06:26:24;;;;;;;56.10;26.30;;;;;;;4.43;85.01;101008.89;207302;1315;140829;-72
2021/12/15 06:31:42;;;;;;;;;;;;;;;;;;;;;
2021/12/15 06:36:47;;;;;;;56.50;29.20;;;;;;;4.45;85.20;101017.12;207973;1315;139396;-71
2021/12/15 06:41:54;;;;;;;46.80;25.70;;;;;;;4.49;84.94;101026.56;207981;1315;139798;-73
2021/12/15 06:47:36;;;;;;;55.90;29.10;;;;;;;4.51;84.96;101031.81;208409;1316;140098;-72
2021/12/15 06:58:23;;;;;;;51.70;25.40;;;;;;;4.53;84.88;101057.40;208659;1316;141532;-71
2021/12/15 07:03:31;;;;;;;53.90;27.20;;;;;;;4.58;85.15;101056.77;209615;1316;140686;-73
2021/12/15 07:08:39;;;;;;;47.80;24.80;;;;;;;4.57;84.98;101046.61;208766;1314;140199;-69
2021/12/15 07:13:47;;;;;;;51.50;25.70;;;;;;;4.59;84.78;101052.88;208442;1316;139905;-72
2021/12/15 07:19:04;;;;;;;48.90;25.90;;;;;;;4.58;84.43;101059.48;208530;1316;141692;-71
2021/12/15 07:24:10;;;;;;;51.70;28.70;;;;;;;4.58;84.55;101064.84;209066;1316;140370;-72
2021/12/15 07:29:14;;;;;;;48.20;25.00;;;;;;;4.60;84.83;101072.99;208786;1313;139265;-69
2021/12/15 07:34:23;;;;;;;44.90;23.60;;;;;;;4.60;84.54;101070.17;207758;1316;155023;-71
2021/12/15 07:39:30;;;;;;;44.60;21.90;;;;;;;4.61;84.69;101065.02;208690;1314;142081;-70
2021/12/15 07:44:35;;;;;;;36.70;20.60;;;;;;;4.62;84.79;101069.11;207911;1316;139602;-68
2021/12/15 07:49:39;;;;;;;42.00;23.30;;;;;;;4.68;84.90;101072.16;208608;1315;141054;-70
2021/12/15 07:54:44;;;;;;;39.00;20.30;;;;;;;4.72;85.14;101080.05;207850;1316;141090;-70
2021/12/15 07:59:50;;;;;;;41.80;21.00;;;;;;;4.76;84.96;101089.48;207258;1316;140999;-69
2021/12/15 08:04:57;;;;;;;33.20;19.20;;;;;;;4.80;84.86;101087.23;208306;1313;140615;-69
2021/12/15 08:10:10;;;;;;;42.70;22.60;;;;;;;4.84;85.20;101087.58;208088;1316;139699;-68
2021/12/15 08:15:19;;;;;;;37.40;17.60;;;;;;;4.84;84.84;101100.62;208030;1316;142274;-68
2021/12/15 08:20:28;;;;;;;38.70;20.20;;;;;;;4.89;85.06;101101.67;208078;1316;140771;-70
2021/12/15 08:25:38;;;;;;;36.40;21.20;;;;;;;4.90;84.93;101097.07;208498;1315;140186;-67
2021/12/15 08:30:45;;;;;;;38.00;19.80;;;;;;;4.93;85.13;101098.33;208230;1316;140436;-68
2021/12/15 08:35:58;;;;;;;33.10;20.80;;;;;;;4.99;84.98;101103.11;207440;1316;152325;-68
2021/12/15 08:41:17;;;;;;;36.20;19.20;;;;;;;5.04;85.22;101101.44;208487;1316;141386;-69
2021/12/15 08:46:39;;;;;;;40.60;18.90;;;;;;;5.06;85.25;101105.90;209056;1316;140160;-68
2021/12/15 08:51:51;;;;;;;42.00;24.30;;;;;;;5.14;84.83;101103.16;207822;1316;141464;-67
2021/12/15 08:56:56;;;;;;;33.40;17.60;;;;;;;5.15;85.13;101098.61;209044;1316;140535;-70
2021/12/15 09:02:01;;;;;;;36.70;19.50;;;;;;;5.17;84.94;101104.09;207968;1314;140360;-71
2021/12/15 09:07:07;;;;;;;35.00;19.80;;;;;;;5.23;84.67;101100.20;209743;1316;142479;-73
2021/12/15 09:12:18;;;;;;;39.60;20.00;;;;;;;5.27;85.23;101095.20;209203;1315;209217;-69
2021/12/15 09:17:23;;;;;;;36.60;22.60;;;;;;;5.28;84.80;101095.08;209576;1315;141044;-70
2021/12/15 09:22:31;;;;;;;32.70;19.80;;;;;;;5.31;84.93;101101.84;209343;1316;140622;-69
2021/12/15 09:27:49;;;;;;;43.30;21.90;;;;;;;5.35;84.59;101103.42;208152;1313;142016;-70
2021/12/15 09:32:56;;;;;;;41.60;22.40;;;;;;;5.40;84.97;101097.30;208405;1313;141072;-71
2021/12/15 09:38:36;;;;;;;38.00;21.00;;;;;;;5.47;85.17;101092.15;208098;1316;142023;-69
2021/12/15 09:43:45;;;;;;;38.00;21.00;;;;;;;5.59;84.78;101095.17;207784;1316;141236;-69
2021/12/15 10:11:30;;;;;;;37.50;18.70;;;;;;;6.06;84.78;101053.42;207167;1315;639237;-75
2021/12/15 10:22:06;;;;;;;41.90;23.60;;;;;;;6.19;84.79;101050.67;207768;1315;139992;-74
2021/12/15 10:27:09;;;;;;;47.50;20.90;;;;;;;6.23;84.72;101051.85;207227;1315;141052;-69
2021/12/15 10:32:14;;;;;;;43.60;22.70;;;;;;;6.33;84.86;101056.55;207400;1314;141395;-72
2021/12/15 10:37:23;;;;;;;40.80;21.60;;;;;;;6.40;84.75;101043.55;207517;1314;150407;-68
2021/12/15 10:42:39;;;;;;;35.70;19.40;;;;;;;6.43;84.81;101053.02;207809;1316;142186;-70
2021/12/15 10:47:52;;;;;;;33.10;17.10;;;;;;;6.48;84.61;101048.95;208221;1314;143585;-72
2021/12/15 10:53:00;;;;;;;39.80;21.00;;;;;;;6.47;84.32;101046.41;209461;1315;140113;-70
2021/12/15 10:58:39;;;;;;;;;;;;;;;6.36;84.39;101046.70;208939;1316;140252;-68
2021/12/15 11:03:45;;;;;;;45.10;22.00;;;;;;;6.28;84.57;101036.93;207680;1322;126823;-69
2021/12/15 11:09:20;;;;;;;41.30;22.00;;;;;;;6.35;84.42;101028.42;209105;1316;140766;-70
2021/12/15 11:14:33;;;;;;;34.20;18.10;;;;;;;6.41;84.67;101027.72;209148;1316;139709;-72
2021/12/15 11:19:41;;;;;;;30.50;17.90;;;;;;;6.44;84.09;101019.60;209508;1316;143544;-70
2021/12/15 11:24:48;;;;;;;32.50;16.70;;;;;;;6.51;84.17;101018.73;208236;1316;141069;-69
2021/12/15 11:29:53;;;;;;;39.40;22.80;;;;;;;6.56;83.98;101015.05;207880;1316;140425;-69
2021/12/15 11:35:04;;;;;;;32.60;16.50;;;;;;;6.56;84.04;101013.30;207383;1315;140869;-71
2021/12/15 11:40:11;;;;;;;38.50;19.40;;;;;;;6.58;84.39;101013.92;207901;1316;139660;-71
2021/12/15 11:45:15;;;;;;;36.30;18.70;;;;;;;6.59;84.18;101016.39;207821;1316;140346;-70
2021/12/15 11:50:21;;;;;;;38.40;23.00;;;;;;;6.56;84.09;101026.14;206998;1315;141084;-72
2021/12/15 11:55:30;;;;;;;39.30;18.90;;;;;;;6.58;84.47;101030.86;207240;1315;139691;-71
2021/12/15 12:00:47;;;;;;;33.60;17.80;;;;;;;6.52;83.92;101034.84;207949;1315;139456;-73
2021/12/15 12:05:52;;;;;;;33.00;18.00;;;;;;;6.45;84.11;101031.48;207444;1315;140500;-71
2021/12/15 12:10:57;;;;;;;41.20;19.80;;;;;;;6.42;84.34;101027.41;207354;1316;141385;-72
2021/12/15 12:16:05;;;;;;;35.60;19.10;;;;;;;6.47;84.57;101017.89;207368;1316;142976;-73
2021/12/15 12:21:13;;;;;;;37.90;18.70;;;;;;;6.48;84.55;101020.50;206851;1315;140843;-72
2021/12/15 12:26:26;;;;;;;41.80;20.50;;;;;;;6.46;84.47;101022.70;207201;1315;142622;-73
2021/12/15 12:31:37;;;;;;;39.70;21.20;;;;;;;6.44;84.89;101025.16;207512;1315;143194;-71
2021/12/15 12:36:45;;;;;;;37.10;17.90;;;;;;;6.40;84.81;101027.55;208056;1315;162542;-73
2021/12/15 12:41:50;;;;;;;37.60;17.90;;;;;;;6.40;85.09;101039.45;206916;1316;140693;-70
2021/12/15 12:47:04;;;;;;;40.20;20.30;;;;;;;6.45;85.03;101030.21;207760;1317;140583;-70
2021/12/15 12:58:03;;;;;;;34.90;17.60;;;;;;;6.42;84.64;101020.15;208119;1315;140080;-70
2021/12/15 13:03:27;;;;;;;35.50;19.70;;;;;;;6.47;84.62;101025.58;209084;1316;142187;-70
2021/12/15 13:08:38;;;;;;;33.70;17.70;;;;;;;6.52;84.89;101028.02;208714;1316;141911;-72
2021/12/15 13:14:33;;;;;;;37.90;17.00;;;;;;;6.56;84.54;101029.70;209561;1316;139894;-73
2021/12/15 13:19:44;;;;;;;38.30;20.10;;;;;;;6.58;84.52;101027.39;208744;1320;139810;-75
2021/12/15 13:30:29;;;;;;;31.10;16.30;;;;;;;6.51;84.57;101031.28;208893;1316;141506;-72
2021/12/15 13:35:43;;;;;;;39.60;20.60;;;;;;;6.52;84.07;101032.14;207108;1319;140151;-74
2021/12/15 13:40:53;;;;;;;34.30;19.10;;;;;;;6.50;84.62;101032.85;208631;1316;140548;-74
2021/12/15 13:45:58;;;;;;;29.10;18.30;;;;;;;6.48;84.64;101041.77;207244;1316;141643;-73
2021/12/15 13:51:06;;;;;;;35.70;16.80;;;;;;;6.48;84.97;101048.38;208186;1316;139695;-71
2021/12/15 13:56:10;;;;;;;36.50;17.80;;;;;;;6.51;84.56;101049.92;208282;1316;140024;-72
2021/12/15 14:01:17;;;;;;;42.70;21.20;;;;;;;6.47;84.39;101052.79;208174;1311;139834;-73
2021/12/15 14:06:26;;;;;;;26.50;17.10;;;;;;;6.47;84.34;101052.46;207910;1315;139869;-73
2021/12/15 14:11:44;;;;;;;39.90;22.10;;;;;;;6.45;84.59;101052.11;207138;1316;139810;-69
2021/12/15 14:16:54;;;;;;;36.30;19.60;;;;;;;6.39;84.90;101059.14;207147;1316;139704;-70
2021/12/15 14:22:07;;;;;;;27.80;16.20;;;;;;;6.37;85.22;101065.59;208060;1315;141326;-71
2021/12/15 14:27:12;;;;;;;35.40;19.50;;;;;;;6.35;84.54;101065.10;207828;1316;139760;-71
2021/12/15 14:32:16;;;;;;;36.70;18.50;;;;;;;6.34;85.35;101064.38;207694;1313;151392;-72
2021/12/15 14:37:21;;;;;;;39.90;19.10;;;;;;;6.33;85.09;101061.21;208892;1316;140980;-75
2021/12/15 14:42:38;;;;;;;40.50;20.80;;;;;;;6.40;85.18;101060.94;207583;1316;139906;-74
2021/12/15 14:47:52;;;;;;;35.80;19.70;;;;;;;6.45;85.86;101060.65;208070;1317;162266;-70
2021/12/15 14:52:58;;;;;;;38.90;22.40;;;;;;;6.42;85.25;101063.06;209605;1316;141235;-70
2021/12/15 14:58:09;;;;;;;56.60;32.40;;;;;;;6.42;85.17;101066.36;208549;1316;140921;-73
2021/12/15 15:03:13;;;;;;;39.40;19.20;;;;;;;6.40;84.65;101062.05;209513;1316;142221;-75
2021/12/15 15:08:25;;;;;;;35.40;21.80;;;;;;;6.34;84.88;101065.61;209007;1315;141784;-73
2021/12/15 15:13:32;;;;;;;47.50;21.70;;;;;;;6.39;85.34;101066.48;209498;1316;141937;-70
2021/12/15 15:18:39;;;;;;;48.00;26.10;;;;;;;6.38;84.93;101059.66;209502;1319;140864;-76
2021/12/15 15:23:48;;;;;;;42.70;20.30;;;;;;;6.35;84.72;101060.73;208829;1316;140844;-72
2021/12/15 15:29:03;;;;;;;49.50;23.40;;;;;;;6.37;85.41;101056.88;208937;1316;141225;-74
2021/12/15 15:34:11;;;;;;;33.40;18.70;;;;;;;6.38;85.11;101047.64;208751;1314;141558;-70
2021/12/15 15:39:18;;;;;;;40.50;18.50;;;;;;;6.37;85.46;101039.40;208264;1316;140538;-71
2021/12/15 15:44:23;;;;;;;40.20;19.90;;;;;;;6.43;85.13;101029.21;208833;1316;143707;-70
2021/12/15 15:49:30;;;;;;;47.00;25.80;;;;;;;6.44;85.23;101034.08;208820;1317;142047;-68
2021/12/15 15:54:37;;;;;;;47.30;20.60;;;;;;;6.40;85.30;101029.59;207376;1315;141067;-72
2021/12/15 15:59:43;;;;;;;35.80;20.00;;;;;;;6.36;85.30;101041.13;208593;1316;141098;-72
2021/12/15 16:04:48;;;;;;;49.00;24.70;;;;;;;6.30;85.47;101049.44;208022;1319;142412;-70
2021/12/15 16:09:56;;;;;;;44.20;22.00;;;;;;;6.27;85.42;101051.94;207201;1316;141210;-70
2021/12/15 16:15:08;;;;;;;43.50;24.00;;;;;;;6.27;85.18;101058.75;207302;1316;140177;-71
2021/12/15 16:20:22;;;;;;;45.50;23.20;;;;;;;6.25;85.30;101055.26;207469;1316;140061;-71
2021/12/15 16:25:46;;;;;;;51.30;24.70;;;;;;;6.22;85.65;101058.27;207030;1316;139624;-71
2021/12/15 16:30:59;;;;;;;56.90;30.50;;;;;;;6.18;85.65;101062.43;208036;1316;139898;-74
2021/12/15 16:36:06;;;;;;;47.60;23.30;;;;;;;6.21;85.75;101057.16;206995;1316;140102;-70
2021/12/15 16:41:28;;;;;;;51.60;27.10;;;;;;;6.15;85.72;101055.27;207392;1316;140368;-73
2021/12/15 16:47:14;;;;;;;;;;;;;;;;;;;;;
2021/12/15 16:52:24;;;;;;;62.10;29.70;;;;;;;6.13;85.91;101050.80;207059;1317;141868;-69
2021/12/15 16:57:31;;;;;;;49.70;26.80;;;;;;;6.14;85.99;101055.30;207743;1315;139873;-72
2021/12/15 17:02:40;;;;;;;48.20;26.30;;;;;;;6.20;85.96;101055.21;207837;1315;140575;-69
2021/12/15 17:07:48;;;;;;;54.60;26.10;;;;;;;6.23;86.05;101048.88;207876;1315;141706;-69
2021/12/15 17:13:13;;;;;;;54.60;29.60;;;;;;;6.23;86.11;101048.11;209661;1316;139554;-73
2021/12/15 17:18:26;;;;;;;69.30;30.30;;;;;;;6.24;85.34;101051.39;208812;1316;141907;-71
2021/12/15 17:23:36;;;;;;;58.10;28.10;;;;;;;6.29;86.03;101061.02;209547;1315;141324;-72
2021/12/15 17:28:43;;;;;;;62.60;33.70;;;;;;;6.38;86.25;101074.98;209795;1316;140960;-73
2021/12/15 17:34:10;;;;;;;60.70;30.20;;;;;;;6.44;85.62;101079.27;209298;1316;140749;-73
2021/12/15 17:39:34;;;;;;;61.40;31.70;;;;;;;6.50;85.73;101078.73;207921;1316;140338;-72
2021/12/15 17:44:50;;;;;;;77.90;37.30;;;;;;;6.54;86.17;101073.74;207377;1315;210626;-72
2021/12/15 17:50:50;;;;;;;57.10;31.80;;;;;;;6.57;85.88;101080.41;208548;1316;140988;-73
2021/12/15 17:55:59;;;;;;;62.60;33.50;;;;;;;6.61;85.63;101098.14;207467;1316;140288;-72
2021/12/15 18:01:17;;;;;;;58.30;31.20;;;;;;;6.54;85.58;101093.88;207938;1316;141793;-71
2021/12/15 18:06:27;;;;;;;65.40;31.80;;;;;;;6.47;85.48;101071.49;208342;1316;140636;-72
2021/12/15 18:11:31;;;;;;;64.00;31.00;;;;;;;6.44;85.99;101074.98;206191;1316;1383746;-71
2021/12/15 18:16:36;;;;;;;63.40;33.10;;;;;;;6.46;85.92;101065.64;207595;1316;144542;-72
2021/12/15 18:21:46;;;;;;;73.80;42.20;;;;;;;6.43;86.13;101069.68;207236;1316;140865;-72
2021/12/15 18:27:00;;;;;;;63.90;31.30;;;;;;;6.42;85.79;101069.02;207314;1316;140546;-72
2021/12/15 18:32:07;;;;;;;72.60;33.40;;;;;;;6.43;86.11;101060.66;207994;1316;140884;-72
2021/12/15 18:37:18;;;;;;;69.10;36.90;;;;;;;6.42;86.17;101061.80;207794;1313;140421;-69
2021/12/15 18:42:27;;;;;;;72.10;36.10;;;;;;;6.40;85.99;101066.30;207118;1316;140607;-70
2021/12/15 18:47:35;;;;;;;71.20;38.20;;;;;;;6.46;86.42;101077.82;208061;1316;141203;-69
2021/12/15 18:52:43;;;;;;;72.80;39.40;;;;;;;6.46;85.90;101072.50;207831;1316;141945;-70
2021/12/15 18:57:57;;;;;;;68.50;38.50;;;;;;;6.41;85.92;101065.48;209033;1316;140145;-70
2021/12/15 19:03:05;;;;;;;65.00;34.40;;;;;;;6.36;85.98;101060.69;207875;1314;140681;-69
2021/12/15 19:08:13;;;;;;;56.70;28.90;;;;;;;6.35;85.66;101051.09;207574;1316;141301;-69
2021/12/15 19:13:27;;;;;;;;;;;;;;;6.34;86.08;101047.89;209250;1316;141479;-70
2021/12/15 19:18:52;;;;;;;55.40;30.30;;;;;;;6.34;86.26;101059.77;210320;1316;125773;-71
2021/12/15 19:23:58;;;;;;;57.30;29.50;;;;;;;6.45;86.32;101069.05;209114;1316;140492;-71
2021/12/15 19:29:09;;;;;;;63.80;32.90;;;;;;;6.50;86.39;101070.98;208247;1315;140510;-69
2021/12/15 19:34:19;;;;;;;51.10;25.80;;;;;;;6.52;86.29;101067.27;207240;1316;139311;-73
2021/12/15 19:39:30;;;;;;;56.70;26.00;;;;;;;6.51;86.07;101065.02;207088;1316;140948;-70
2021/12/15 19:44:37;;;;;;;56.80;29.80;;;;;;;6.54;86.60;101069.23;208552;1316;140509;-67
2021/12/15 19:49:45;;;;;;;55.00;30.40;;;;;;;6.51;86.51;101067.83;207663;1315;141251;-69
2021/12/15 19:54:50;;;;;;;62.30;29.10;;;;;;;6.50;86.15;101075.75;207402;1316;140440;-69
2021/12/15 19:59:54;;;;;;;56.00;29.70;;;;;;;6.51;86.18;101070.69;208058;1315;142036;-70
2021/12/15 20:04:57;;;;;;;51.80;25.10;;;;;;;6.48;86.29;101072.66;207673;1315;140109;-71
2021/12/15 20:10:04;;;;;;;54.50;24.60;;;;;;;6.47;86.16;101066.00;207215;1316;139742;-74
2021/12/15 20:15:12;;;;;;;58.20;29.20;;;;;;;6.46;86.29;101063.36;207841;1316;140579;-72
2021/12/15 20:20:18;;;;;;;52.00;24.20;;;;;;;6.44;86.17;101067.25;207489;1316;144642;-74
2021/12/15 20:25:24;;;;;;;51.70;25.50;;;;;;;6.41;86.46;101069.00;207047;1316;139902;-71
2021/12/15 20:30:40;;;;;;;51.40;26.00;;;;;;;6.47;86.93;101068.48;208116;1316;141999;-68
2021/12/15 20:35:46;;;;;;;64.40;30.60;;;;;;;6.52;86.70;101073.55;207991;1316;139680;-69
2021/12/15 20:40:56;;;;;;;61.70;26.10;;;;;;;6.55;86.67;101073.05;208051;1316;140414;-70
2021/12/15 20:46:01;;;;;;;55.80;29.40;;;;;;;6.61;86.75;101070.98;207397;1316;140145;-68
2021/12/15 20:51:11;;;;;;;51.00;26.60;;;;;;;6.60;86.64;101053.11;208970;1316;140411;-68
2021/12/15 20:56:21;;;;;;;55.20;23.20;;;;;;;6.53;86.45;101043.61;207942;1316;144219;-68
2021/12/15 21:01:29;;;;;;;54.20;29.70;;;;;;;6.56;86.74;101049.45;207539;1316;140290;-68
2021/12/15 21:06:39;;;;;;;54.60;28.90;;;;;;;6.55;86.58;101047.65;207933;1316;142031;-69
2021/12/15 21:11:47;;;;;;;63.40;28.30;;;;;;;6.52;86.66;101048.00;209992;1317;220649;-74
2021/12/15 21:16:54;;;;;;;54.30;26.80;;;;;;;6.52;87.03;101047.50;209119;1316;141142;-72
2021/12/15 21:22:03;;;;;;;48.50;25.40;;;;;;;6.55;86.53;101052.11;208513;1316;145313;-74
2021/12/15 21:27:12;;;;;;;43.70;22.60;;;;;;;6.57;86.74;101055.22;208635;1311;140157;-69
2021/12/15 21:32:22;;;;;;;55.90;25.40;;;;;;;6.61;86.74;101051.11;208104;1316;141841;-70
2021/12/15 21:37:34;;;;;;;49.00;26.50;;;;;;;6.67;87.05;101047.61;207607;1316;140530;-70
2021/12/15 21:42:39;;;;;;;51.70;25.50;;;;;;;6.68;86.63;101043.32;208087;1313;140652;-70
2021/12/15 21:47:50;;;;;;;51.60;26.00;;;;;;;6.70;86.90;101040.73;208142;1316;142536;-70
2021/12/15 21:52:58;;;;;;;44.30;22.10;;;;;;;6.74;87.11;101038.71;208260;1316;141358;-73
2021/12/15 21:58:11;;;;;;;60.20;27.00;;;;;;;6.71;86.72;101041.46;207475;1316;140616;-74
2021/12/15 22:03:21;;;;;;;63.90;29.90;;;;;;;6.71;86.67;101038.00;207554;1316;142212;-71
2021/12/15 22:08:36;;;;;;;49.70;26.40;;;;;;;6.71;86.93;101033.80;208140;1316;139791;-70
2021/12/15 22:13:42;;;;;;;50.40;25.70;;;;;;;6.68;86.60;101035.70;207535;1314;140581;-71
2021/12/15 22:18:54;;;;;;;58.20;25.50;;;;;;;6.72;86.78;101032.59;207478;1316;140271;-73
2021/12/15 22:24:14;;;;;;;58.70;28.10;;;;;;;6.68;87.13;101030.04;207206;1316;140287;-75
2021/12/15 22:29:27;;;;;;;61.00;26.40;;;;;;;6.66;86.91;101025.91;207764;1316;141804;-69
2021/12/15 22:34:37;;;;;;;66.60;36.20;;;;;;;6.65;86.92;101021.59;207320;1316;141147;-75
2021/12/15 22:39:52;;;;;;;66.80;32.00;;;;;;;6.63;86.92;101031.16;207486;1316;141281;-70
2021/12/15 22:45:05;;;;;;;59.50;28.40;;;;;;;6.65;86.92;101036.23;207469;1316;141284;-71
2021/12/15 22:50:13;;;;;;;62.30;31.40;;;;;;;6.72;87.50;101032.86;207962;1316;141534;-69
2021/12/15 22:55:20;;;;;;;65.60;32.40;;;;;;;6.73;87.36;101033.83;207977;1317;141014;-70
2021/12/15 23:01:03;;;;;;;64.50;30.30;;;;;;;6.68;86.93;101029.91;208866;1316;140351;-70
2021/12/15 23:06:09;;;;;;;61.60;29.10;;;;;;;6.70;86.80;101026.61;208392;1316;140965;-70
2021/12/15 23:11:25;;;;;;;60.90;30.00;;;;;;;6.74;87.12;101024.05;208743;1315;141491;-72
2021/12/15 23:16:35;;;;;;;69.90;27.90;;;;;;;6.75;86.76;101026.84;209180;1312;140534;-71
2021/12/15 23:21:52;;;;;;;65.30;29.90;;;;;;;6.78;86.83;101025.36;208954;1316;140938;-69
2021/12/15 23:27:19;;;;;;;63.80;28.50;;;;;;;6.81;87.08;101022.16;208120;1316;141200;-74
2021/12/15 23:32:26;;;;;;;58.60;29.90;;;;;;;6.83;87.02;101022.05;208970;1316;140727;-71
2021/12/15 23:37:34;;;;;;;64.10;32.10;;;;;;;6.83;86.64;101021.35;208892;1316;141159;-73
